Aviation Digital Data Service (ADDS)

Output produced by METARs form (1412 UTC 30 March 2015)
found at http://aviationweather.gov/adds/metars/
 
KINT 301343Z 3014/3112 23010KT P6SM OVC045 WS015/24045KT 
     TEMPO 3014/3016 5SM -DZ BR OVC030 
     FM301700 28010G18KT P6SM SCT050 SCT100 
     FM310000 32004KT P6SM SKC